Kan 2 — T2ZB4 — position and weather

sailwx.info

Track history (hours):
 
Tides and Currents Weather Stations Pressure Air Temp Water Temp Dewpoint Dewpoint Depression Visibility Wind Speed Wind Dir Waves Ship Positions

Kan 2

Last reported at 2017-Sep-21 23:23 UTC. Time now 2017-Sep-24 07:01 UTC.
Position N 37°29' E 025°56'.

Length 149 m; draft 5.7 m.

Type: Ship. MMSI: 572907000.

Date/timePositionNaut miles runAvg speedWind from/ knotsBaromVisibWave heightAir tempDewpointWater temp
2017-Sep-21 23:23N 37°29' E 025°56'512.4
2017-Sep-21 23:00N 37°33' E 025°53'612.7
2017-Sep-21 22:31N 37°39' E 025°52'268 9.5
2017-Sep-20 18:20N 41°22' E 029°04'6 1.2
2017-Sep-20 13:37N 41°20' E 029°12'6 0.8
2017-Sep-20 06:13N 41°22' E 029°19'1 0.6
2017-Sep-20 04:34N 41°23' E 029°20'0 2.3
2017-Sep-20 04:29N 41°23' E 029°21'3 5.7
2017-Sep-20 03:59N 41°24' E 029°24'3711.7
2017-Sep-20 00:51N 41°37' E 030°09'511.8
2017-Sep-20 00:23N 41°40' E 030°16'511.6
2017-Sep-20 00:00N 41°41' E 030°22'611.7
2017-Sep-19 23:31N 41°43' E 030°29'611.8
2017-Sep-19 22:59N 41°45' E 030°37'611.8
2017-Sep-19 22:30N 41°47' E 030°44'611.6
2017-Sep-19 22:00N 41°49' E 030°51'611.9
2017-Sep-19 21:30N 41°51' E 030°59'612.2
2017-Sep-19 20:59N 41°53' E 031°07'612.2
2017-Sep-19 20:29N 41°55' E 031°15'712.3
2017-Sep-19 19:54N 41°58' E 031°24'512.2
2017-Sep-19 19:30N 41°60' E 031°30'1112.3
2017-Sep-19 18:38N 42°03' E 031°43'212.4
2017-Sep-19 18:30N 42°04' E 031°45'612.3
2017-Sep-19 18:01N 42°06' E 031°53'912.1
2017-Sep-19 17:16N 42°09' E 032°04'712.1
2017-Sep-19 16:44N 42°11' E 032°13'412.1
2017-Sep-19 16:23N 42°13' E 032°18'23212.2
2017-Sep-18 21:19N 43°33' E 037°15'2011.8
2017-Sep-18 19:39N 43°40' E 037°40'312.1
2017-Sep-18 19:25N 43°40' E 037°44'512.1
2017-Sep-18 19:00N 43°42' E 037°51'612.2
2017-Sep-18 18:30N 43°44' E 037°58'612.2
2017-Sep-18 18:00N 43°46' E 038°06'912.1
2017-Sep-18 17:17N 43°49' E 038°18'1612.0
2017-Sep-18 15:57N 43°55' E 038°39'512.0
2017-Sep-18 15:30N 43°57' E 038°46'612.2
2017-Sep-18 15:00N 43°59' E 038°54'612.3
2017-Sep-18 14:31N 44°01' E 039°01'4 8.4
2017-Sep-18 14:01N 44°05' E 039°04'1 1.3
2017-Sep-18 13:30N 44°06' E 039°04'0 0.1
2017-Sep-18 13:00N 44°06' E 039°04'0 0.0
2017-Sep-18 12:30N 44°06' E 039°04'0 0.0
2017-Sep-18 11:57N 44°06' E 039°04'0 0.0
2017-Sep-18 11:27N 44°06' E 039°04'0 0.0
2017-Sep-18 11:00N 44°06' E 039°04'0 0.0
2017-Sep-18 10:30N 44°06' E 039°04'0 0.0
2017-Sep-18 10:00N 44°06' E 039°04'0 0.0
2017-Sep-18 09:30N 44°06' E 039°04'0 0.0
2017-Sep-18 09:00N 44°06' E 039°04'0 0.0
2017-Sep-18 08:30N 44°06' E 039°04'0 0.0
2017-Sep-18 08:00N 44°06' E 039°04'0 0.0
2017-Sep-18 07:30N 44°06' E 039°04'0 0.0
2017-Sep-18 07:00N 44°06' E 039°04'0 0.0
2017-Sep-18 06:30N 44°06' E 039°04'0 0.0
2017-Sep-18 06:00N 44°06' E 039°04'0 0.0
2017-Sep-18 05:30N 44°06' E 039°04'0 0.0
2017-Sep-18 05:00N 44°06' E 039°04'0 0.0
2017-Sep-18 04:30N 44°06' E 039°04'0 0.0
2017-Sep-18 04:00N 44°06' E 039°04'0 0.0
2017-Sep-18 03:30N 44°06' E 039°04'0 0.0
2017-Sep-18 03:00N 44°06' E 039°04'0 0.0
2017-Sep-18 02:30N 44°06' E 039°04'0 0.0
2017-Sep-18 02:00N 44°06' E 039°04'0 0.0
2017-Sep-18 01:30N 44°06' E 039°04'0 0.0
2017-Sep-18 01:00N 44°06' E 039°04'0 0.0
2017-Sep-18 00:30N 44°06' E 039°04'0 0.0
2017-Sep-18 00:00N 44°06' E 039°04'0 0.0
2017-Sep-17 23:30N 44°06' E 039°04'0 0.0
2017-Sep-17 23:00N 44°06' E 039°04'0 0.0
2017-Sep-17 22:30N 44°06' E 039°04'0 0.0
2017-Sep-17 22:00N 44°06' E 039°04'0 0.0
2017-Sep-17 21:30N 44°06' E 039°04'0 0.0
2017-Sep-17 21:00N 44°06' E 039°04'0 0.0
2017-Sep-17 20:30N 44°06' E 039°04'0 0.0
2017-Sep-17 20:00N 44°06' E 039°04'0 0.0
2017-Sep-17 19:30N 44°06' E 039°04'0 0.0
2017-Sep-17 19:00N 44°06' E 039°04'0 0.0
2017-Sep-17 18:30N 44°06' E 039°04'0 0.0
2017-Sep-17 18:00N 44°06' E 039°04'0 0.0
2017-Sep-17 17:30N 44°06' E 039°04'0 0.0
2017-Sep-17 17:00N 44°06' E 039°04'0 0.0
2017-Sep-17 16:30N 44°06' E 039°04'0 0.0
2017-Sep-17 16:00N 44°06' E 039°04'0 0.0
2017-Sep-17 15:30N 44°06' E 039°04'0 0.0
2017-Sep-17 15:00N 44°06' E 039°04'0 0.0
2017-Sep-17 14:30N 44°06' E 039°04'0 0.0
2017-Sep-17 14:00N 44°06' E 039°04'0 0.0
2017-Sep-17 13:30N 44°06' E 039°04'0 0.0
2017-Sep-17 13:00N 44°06' E 039°04'0 0.0
2017-Sep-17 12:30N 44°06' E 039°04'0 0.0
2017-Sep-17 12:00N 44°06' E 039°04'0 0.0
2017-Sep-17 11:30N 44°06' E 039°04'0 0.0
2017-Sep-17 11:00N 44°06' E 039°04'0 0.0
2017-Sep-17 10:30N 44°06' E 039°04'0 0.0
2017-Sep-17 10:00N 44°06' E 039°04'0 0.0
2017-Sep-17 09:30N 44°06' E 039°04'0 0.0
2017-Sep-17 09:00N 44°06' E 039°04'0 0.0
2017-Sep-17 08:30N 44°06' E 039°04'0 0.0
2017-Sep-17 08:00N 44°06' E 039°04'0 0.0
2017-Sep-17 07:30N 44°06' E 039°04'0 0.0
2017-Sep-17 07:00N 44°06' E 039°04'0 0.0
2017-Sep-17 06:30N 44°06' E 039°04'0 0.0
2017-Sep-17 06:00N 44°06' E 039°04'0 0.0
2017-Sep-17 05:30N 44°06' E 039°04'0 0.0
2017-Sep-17 05:00N 44°06' E 039°04'0 0.0
2017-Sep-17 04:30N 44°06' E 039°04'0 0.0
2017-Sep-17 04:00N 44°06' E 039°04'0 0.0
2017-Sep-17 03:30N 44°06' E 039°04'0 0.0
2017-Sep-17 03:00N 44°06' E 039°04'0 0.0
2017-Sep-17 02:30N 44°06' E 039°04'0 0.0
2017-Sep-17 02:00N 44°06' E 039°04'0 0.0
2017-Sep-17 01:30N 44°06' E 039°04'0 0.0
2017-Sep-17 01:00N 44°06' E 039°04'0 0.0
2017-Sep-17 00:30N 44°06' E 039°04'0 0.0
2017-Sep-17 00:00N 44°06' E 039°04'0 0.0
2017-Sep-16 23:30N 44°06' E 039°04'0 0.0
2017-Sep-16 23:00N 44°06' E 039°04'0 0.0
2017-Sep-16 22:30N 44°06' E 039°04'0 0.0
2017-Sep-16 22:00N 44°06' E 039°04'0 0.0
2017-Sep-16 21:27N 44°06' E 039°04'0 0.0
2017-Sep-16 21:00N 44°06' E 039°04'0 0.0
2017-Sep-16 20:30N 44°06' E 039°04'0 0.0
2017-Sep-16 20:00N 44°06' E 039°04'0 0.0
2017-Sep-16 19:30N 44°06' E 039°04'0 0.0
2017-Sep-16 19:00N 44°06' E 039°04'0 0.0
2017-Sep-16 18:30N 44°06' E 039°04'0 0.0
2017-Sep-16 18:00N 44°06' E 039°04'0 0.0
2017-Sep-16 17:30N 44°06' E 039°04'0 0.0
2017-Sep-16 17:00N 44°06' E 039°04'0 0.0
2017-Sep-16 16:30N 44°06' E 039°04'0 0.0
2017-Sep-16 16:00N 44°06' E 039°04'0 0.0
2017-Sep-16 15:30N 44°06' E 039°04'0 0.0
2017-Sep-16 15:00N 44°06' E 039°04'0 0.0
2017-Sep-16 14:30N 44°06' E 039°04'0 0.0
2017-Sep-16 14:00N 44°06' E 039°04'0 0.0
2017-Sep-16 13:30N 44°06' E 039°04'0 0.0
2017-Sep-16 13:00N 44°06' E 039°04'0 0.0
2017-Sep-16 12:30N 44°06' E 039°04'0 0.0
2017-Sep-16 12:00N 44°06' E 039°04'0 0.0
2017-Sep-16 11:30N 44°06' E 039°04'0 0.0
2017-Sep-16 11:00N 44°06' E 039°04'0 0.0
2017-Sep-16 10:30N 44°06' E 039°04'0 0.0
2017-Sep-16 10:00N 44°06' E 039°04'0 0.0
2017-Sep-16 09:30N 44°06' E 039°04'0 0.0
2017-Sep-16 08:59N 44°06' E 039°04'0 0.0
2017-Sep-16 08:29N 44°06' E 039°04'0 0.0
2017-Sep-16 07:59N 44°06' E 039°04'0 0.0
2017-Sep-16 07:29N 44°06' E 039°04'0 0.0
2017-Sep-16 06:59N 44°06' E 039°04'0 0.0
2017-Sep-16 06:29N 44°06' E 039°04'0 0.0
2017-Sep-16 05:59N 44°06' E 039°04'0 0.0
2017-Sep-16 05:29N 44°06' E 039°04'0 0.0
2017-Sep-16 04:59N 44°06' E 039°04'0 0.0
2017-Sep-16 04:26N 44°06' E 039°04'0 0.0
2017-Sep-16 03:53N 44°06' E 039°04'0 0.0
2017-Sep-16 03:29N 44°06' E 039°04'0 0.0
2017-Sep-16 02:59N 44°06' E 039°04'0 0.0
2017-Sep-16 02:29N 44°06' E 039°04'0 0.0
2017-Sep-16 01:59N 44°06' E 039°04'0 0.0
2017-Sep-16 01:29N 44°06' E 039°04'0 0.0
2017-Sep-16 00:59N 44°06' E 039°04'0 0.0
2017-Sep-16 00:29N 44°06' E 039°04'0 0.0
2017-Sep-15 23:59N 44°06' E 039°04'0 0.0
2017-Sep-15 23:29N 44°06' E 039°04'0 0.0
2017-Sep-15 22:59N 44°06' E 039°04'0 0.0
2017-Sep-15 22:26N 44°06' E 039°04'0 0.0
2017-Sep-15 21:59N 44°06' E 039°04'0 0.0
2017-Sep-15 21:29N 44°06' E 039°04'0 0.3
2017-Sep-15 21:00N 44°05' E 039°04'2 4.5
2017-Sep-15 20:31N 44°03' E 039°04'4 8.2
2017-Sep-15 20:00N 44°01' E 038°59'612.0
2017-Sep-15 19:30N 43°58' E 038°51'612.2
2017-Sep-15 19:00N 43°56' E 038°44'612.3
2017-Sep-15 18:30N 43°54' E 038°36'612.2
2017-Sep-15 18:00N 43°52' E 038°28'612.1
2017-Sep-15 17:30N 43°50' E 038°20'612.1
2017-Sep-15 17:00N 43°48' E 038°12'612.1
2017-Sep-15 16:30N 43°46' E 038°04'611.9
2017-Sep-15 16:00N 43°44' E 037°56'611.8
2017-Sep-15 15:30N 43°42' E 037°49'612.0
2017-Sep-15 15:00N 43°39' E 037°41'611.9
2017-Sep-15 14:30N 43°37' E 037°33'612.0
2017-Sep-15 14:00N 43°35' E 037°25'612.1
2017-Sep-15 13:30N 43°33' E 037°18'612.2
2017-Sep-15 13:00N 43°31' E 037°10'1812.3
2017-Sep-15 11:32N 43°25' E 036°46'112.4
2017-Sep-15 11:26N 43°24' E 036°45'512.5
2017-Sep-15 11:00N 43°22' E 036°38'612.5
2017-Sep-15 10:30N 43°20' E 036°30'612.5
2017-Sep-15 10:00N 43°18' E 036°22'712.6
2017-Sep-15 09:26N 43°16' E 036°12'4512.7
2017-Sep-15 05:52N 42°60' E 035°14'6611.7
2017-Sep-15 00:13N 42°37' E 033°50'211.4
2017-Sep-15 00:00N 42°36' E 033°47'611.6
2017-Sep-14 23:30N 42°34' E 033°39'611.7
2017-Sep-14 23:00N 42°32' E 033°32'4612.1
2017-Sep-14 19:12N 42°15' E 032°33'312.5
2017-Sep-14 18:59N 42°14' E 032°30'612.4
2017-Sep-14 18:30N 42°12' E 032°22'1612.0
2017-Sep-14 17:10N 42°05' E 032°03'211.9
2017-Sep-14 16:58N 42°04' E 032°00'811.9
2017-Sep-14 16:15N 42°00' E 031°50'1111.8
2017-Sep-14 15:20N 41°58' E 031°35'412.1
2017-Sep-14 15:00N 41°58' E 031°30'612.0
2017-Sep-14 14:30N 41°56' E 031°23'612.0
2017-Sep-14 14:00N 41°54' E 031°15'612.0
2017-Sep-14 13:31N 41°52' E 031°08'612.1
2017-Sep-14 13:00N 41°50' E 030°60'612.0
2017-Sep-14 12:31N 41°48' E 030°52'612.2
2017-Sep-14 12:00N 41°45' E 030°45'612.3
2017-Sep-14 11:30N 41°43' E 030°37'612.5
2017-Sep-14 10:59N 41°41' E 030°29'612.6
2017-Sep-14 10:30N 41°39' E 030°21'612.5
2017-Sep-14 10:00N 41°37' E 030°14'612.4
2017-Sep-14 09:31N 41°35' E 030°06'612.4
2017-Sep-14 09:00N 41°32' E 029°58'68 2.1
2017-Sep-13 00:23N 40°47' E 028°52'0 0.7
2017-Sep-12 23:59N 40°47' E 028°52'1 0.5
2017-Sep-12 22:35N 40°46' E 028°52'0 0.5
2017-Sep-12 22:23N 40°46' E 028°52'1 1.2
2017-Sep-12 21:20N 40°45' E 028°54'2 6.0
2017-Sep-12 20:57N 40°45' E 028°56'3 6.1
2017-Sep-12 20:28N 40°45' E 029°00'3 6.7
2017-Sep-12 20:00N 40°45' E 029°04'4 6.6
2017-Sep-12 19:28N 40°47' E 029°08'3 6.7
2017-Sep-12 19:00N 40°50' E 029°11'3 6.9
2017-Sep-12 18:30N 40°51' E 029°15'2 2.7
2017-Sep-12 17:56N 40°51' E 029°17'0 0.0
2017-Sep-12 17:14N 40°51' E 029°17'0 0.0
2017-Sep-12 16:56N 40°51' E 029°17'0 0.0
2017-Sep-12 16:26N 40°51' E 029°17'0 0.0
2017-Sep-12 15:58N 40°51' E 029°17'0 0.0
2017-Sep-12 15:16N 40°51' E 029°17'0 0.0
2017-Sep-12 14:58N 40°51' E 029°17'0 0.0
2017-Sep-12 14:28N 40°51' E 029°17'0 0.0
2017-Sep-12 12:52N 40°51' E 029°17'0 0.0
2017-Sep-12 12:28N 40°51' E 029°17'0 0.0
2017-Sep-12 11:34N 40°51' E 029°17'0 0.0
2017-Sep-12 11:28N 40°51' E 029°17'0 0.0
2017-Sep-12 10:52N 40°51' E 029°17'0 0.0
2017-Sep-12 10:22N 40°51' E 029°17'0 0.0
2017-Sep-12 09:58N 40°51' E 029°17'0 0.0
2017-Sep-12 09:22N 40°51' E 029°17'0 0.0
2017-Sep-12 08:58N 40°51' E 029°17'0 0.0
2017-Sep-12 08:30N 40°51' E 029°17'0 0.0
2017-Sep-12 08:00N 40°51' E 029°17'0 0.0
2017-Sep-12 07:30N 40°51' E 029°17'0 0.0
2017-Sep-12 07:00N 40°51' E 029°17'0 0.0
2017-Sep-12 06:30N 40°51' E 029°17'0 0.0
2017-Sep-12 06:00N 40°51' E 029°17'0 0.0
2017-Sep-12 05:24N 40°51' E 029°17'0 0.0
2017-Sep-12 04:42N 40°51' E 029°17'0 0.0
2017-Sep-12 04:30N 40°51' E 029°17'0 0.0
2017-Sep-12 04:00N 40°51' E 029°17'0 0.0
2017-Sep-12 03:30N 40°51' E 029°17'0 0.0
2017-Sep-12 03:00N 40°51' E 029°17'0 0.0
2017-Sep-12 02:30N 40°51' E 029°17'0 0.0
2017-Sep-12 01:54N 40°51' E 029°17'0 0.0
2017-Sep-12 01:30N 40°51' E 029°17'0 0.0
2017-Sep-12 01:00N 40°51' E 029°17'0 0.0
2017-Sep-12 00:30N 40°51' E 029°17'0 0.0
2017-Sep-11 23:54N 40°51' E 029°17'0 0.0
2017-Sep-11 23:30N 40°51' E 029°17'  
Track history (hours):
 
Tides and Currents Weather Stations Pressure Air Temp Water Temp Dewpoint Dewpoint Depression Visibility Wind Speed Wind Dir Waves Ship Positions

Kan 2

Last reported at 2017-Sep-21 23:23 UTC. Time now 2017-Sep-24 07:01 UTC.
Position N 37°29' E 025°56'.

Length 149 m; draft 5.7 m.

Type: Ship. MMSI: 572907000.

Date/timePositionNaut miles runAvg speedWind from/ knotsBaromVisibWave heightAir tempDewpointWater temp
2017-Sep-21 23:23N 37°29' E 025°56'512.4
2017-Sep-21 23:00N 37°33' E 025°53'612.7
2017-Sep-21 22:31N 37°39' E 025°52'268 9.5
2017-Sep-20 18:20N 41°22' E 029°04'6 1.2
2017-Sep-20 13:37N 41°20' E 029°12'6 0.8
2017-Sep-20 06:13N 41°22' E 029°19'1 0.6
2017-Sep-20 04:34N 41°23' E 029°20'0 2.3
2017-Sep-20 04:29N 41°23' E 029°21'3 5.7
2017-Sep-20 03:59N 41°24' E 029°24'3711.7
2017-Sep-20 00:51N 41°37' E 030°09'511.8
2017-Sep-20 00:23N 41°40' E 030°16'511.6
2017-Sep-20 00:00N 41°41' E 030°22'611.7
2017-Sep-19 23:31N 41°43' E 030°29'611.8
2017-Sep-19 22:59N 41°45' E 030°37'611.8
2017-Sep-19 22:30N 41°47' E 030°44'611.6
2017-Sep-19 22:00N 41°49' E 030°51'611.9
2017-Sep-19 21:30N 41°51' E 030°59'612.2
2017-Sep-19 20:59N 41°53' E 031°07'612.2
2017-Sep-19 20:29N 41°55' E 031°15'712.3
2017-Sep-19 19:54N 41°58' E 031°24'512.2
2017-Sep-19 19:30N 41°60' E 031°30'1112.3
2017-Sep-19 18:38N 42°03' E 031°43'212.4
2017-Sep-19 18:30N 42°04' E 031°45'612.3
2017-Sep-19 18:01N 42°06' E 031°53'912.1
2017-Sep-19 17:16N 42°09' E 032°04'712.1
2017-Sep-19 16:44N 42°11' E 032°13'412.1
2017-Sep-19 16:23N 42°13' E 032°18'23212.2
2017-Sep-18 21:19N 43°33' E 037°15'2011.8
2017-Sep-18 19:39N 43°40' E 037°40'312.1
2017-Sep-18 19:25N 43°40' E 037°44'512.1
2017-Sep-18 19:00N 43°42' E 037°51'612.2
2017-Sep-18 18:30N 43°44' E 037°58'612.2
2017-Sep-18 18:00N 43°46' E 038°06'912.1
2017-Sep-18 17:17N 43°49' E 038°18'1612.0
2017-Sep-18 15:57N 43°55' E 038°39'512.0
2017-Sep-18 15:30N 43°57' E 038°46'612.2
2017-Sep-18 15:00N 43°59' E 038°54'612.3
2017-Sep-18 14:31N 44°01' E 039°01'4 8.4
2017-Sep-18 14:01N 44°05' E 039°04'1 1.3
2017-Sep-18 13:30N 44°06' E 039°04'0 0.1
2017-Sep-18 13:00N 44°06' E 039°04'0 0.0
2017-Sep-18 12:30N 44°06' E 039°04'0 0.0
2017-Sep-18 11:57N 44°06' E 039°04'0 0.0
2017-Sep-18 11:27N 44°06' E 039°04'0 0.0
2017-Sep-18 11:00N 44°06' E 039°04'0 0.0
2017-Sep-18 10:30N 44°06' E 039°04'0 0.0
2017-Sep-18 10:00N 44°06' E 039°04'0 0.0
2017-Sep-18 09:30N 44°06' E 039°04'0 0.0
2017-Sep-18 09:00N 44°06' E 039°04'0 0.0
2017-Sep-18 08:30N 44°06' E 039°04'0 0.0
2017-Sep-18 08:00N 44°06' E 039°04'0 0.0
2017-Sep-18 07:30N 44°06' E 039°04'0 0.0
2017-Sep-18 07:00N 44°06' E 039°04'0 0.0
2017-Sep-18 06:30N 44°06' E 039°04'0 0.0
2017-Sep-18 06:00N 44°06' E 039°04'0 0.0
2017-Sep-18 05:30N 44°06' E 039°04'0 0.0
2017-Sep-18 05:00N 44°06' E 039°04'0 0.0
2017-Sep-18 04:30N 44°06' E 039°04'0 0.0
2017-Sep-18 04:00N 44°06' E 039°04'0 0.0
2017-Sep-18 03:30N 44°06' E 039°04'0 0.0
2017-Sep-18 03:00N 44°06' E 039°04'0 0.0
2017-Sep-18 02:30N 44°06' E 039°04'0 0.0
2017-Sep-18 02:00N 44°06' E 039°04'0 0.0
2017-Sep-18 01:30N 44°06' E 039°04'0 0.0
2017-Sep-18 01:00N 44°06' E 039°04'0 0.0
2017-Sep-18 00:30N 44°06' E 039°04'0 0.0
2017-Sep-18 00:00N 44°06' E 039°04'0 0.0
2017-Sep-17 23:30N 44°06' E 039°04'0 0.0
2017-Sep-17 23:00N 44°06' E 039°04'0 0.0
2017-Sep-17 22:30N 44°06' E 039°04'0 0.0
2017-Sep-17 22:00N 44°06' E 039°04'0 0.0
2017-Sep-17 21:30N 44°06' E 039°04'0 0.0
2017-Sep-17 21:00N 44°06' E 039°04'0 0.0
2017-Sep-17 20:30N 44°06' E 039°04'0 0.0
2017-Sep-17 20:00N 44°06' E 039°04'0 0.0
2017-Sep-17 19:30N 44°06' E 039°04'0 0.0
2017-Sep-17 19:00N 44°06' E 039°04'0 0.0
2017-Sep-17 18:30N 44°06' E 039°04'0 0.0
2017-Sep-17 18:00N 44°06' E 039°04'0 0.0
2017-Sep-17 17:30N 44°06' E 039°04'0 0.0
2017-Sep-17 17:00N 44°06' E 039°04'0 0.0
2017-Sep-17 16:30N 44°06' E 039°04'0 0.0
2017-Sep-17 16:00N 44°06' E 039°04'0 0.0
2017-Sep-17 15:30N 44°06' E 039°04'0 0.0
2017-Sep-17 15:00N 44°06' E 039°04'0 0.0
2017-Sep-17 14:30N 44°06' E 039°04'0 0.0
2017-Sep-17 14:00N 44°06' E 039°04'0 0.0
2017-Sep-17 13:30N 44°06' E 039°04'0 0.0
2017-Sep-17 13:00N 44°06' E 039°04'0 0.0
2017-Sep-17 12:30N 44°06' E 039°04'0 0.0
2017-Sep-17 12:00N 44°06' E 039°04'0 0.0
2017-Sep-17 11:30N 44°06' E 039°04'0 0.0
2017-Sep-17 11:00N 44°06' E 039°04'0 0.0
2017-Sep-17 10:30N 44°06' E 039°04'0 0.0
2017-Sep-17 10:00N 44°06' E 039°04'0 0.0
2017-Sep-17 09:30N 44°06' E 039°04'0 0.0
2017-Sep-17 09:00N 44°06' E 039°04'0 0.0
2017-Sep-17 08:30N 44°06' E 039°04'0 0.0
2017-Sep-17 08:00N 44°06' E 039°04'0 0.0
2017-Sep-17 07:30N 44°06' E 039°04'0 0.0
2017-Sep-17 07:00N 44°06' E 039°04'0 0.0
2017-Sep-17 06:30N 44°06' E 039°04'0 0.0
2017-Sep-17 06:00N 44°06' E 039°04'0 0.0
2017-Sep-17 05:30N 44°06' E 039°04'0 0.0
2017-Sep-17 05:00N 44°06' E 039°04'0 0.0
2017-Sep-17 04:30N 44°06' E 039°04'0 0.0
2017-Sep-17 04:00N 44°06' E 039°04'0 0.0
2017-Sep-17 03:30N 44°06' E 039°04'0 0.0
2017-Sep-17 03:00N 44°06' E 039°04'0 0.0
2017-Sep-17 02:30N 44°06' E 039°04'0 0.0
2017-Sep-17 02:00N 44°06' E 039°04'0 0.0
2017-Sep-17 01:30N 44°06' E 039°04'0 0.0
2017-Sep-17 01:00N 44°06' E 039°04'0 0.0
2017-Sep-17 00:30N 44°06' E 039°04'0 0.0
2017-Sep-17 00:00N 44°06' E 039°04'0 0.0
2017-Sep-16 23:30N 44°06' E 039°04'0 0.0
2017-Sep-16 23:00N 44°06' E 039°04'0 0.0
2017-Sep-16 22:30N 44°06' E 039°04'0 0.0
2017-Sep-16 22:00N 44°06' E 039°04'0 0.0
2017-Sep-16 21:27N 44°06' E 039°04'0 0.0
2017-Sep-16 21:00N 44°06' E 039°04'0 0.0
2017-Sep-16 20:30N 44°06' E 039°04'0 0.0
2017-Sep-16 20:00N 44°06' E 039°04'0 0.0
2017-Sep-16 19:30N 44°06' E 039°04'0 0.0
2017-Sep-16 19:00N 44°06' E 039°04'0 0.0
2017-Sep-16 18:30N 44°06' E 039°04'0 0.0
2017-Sep-16 18:00N 44°06' E 039°04'0 0.0
2017-Sep-16 17:30N 44°06' E 039°04'0 0.0
2017-Sep-16 17:00N 44°06' E 039°04'0 0.0
2017-Sep-16 16:30N 44°06' E 039°04'0 0.0
2017-Sep-16 16:00N 44°06' E 039°04'0 0.0
2017-Sep-16 15:30N 44°06' E 039°04'0 0.0
2017-Sep-16 15:00N 44°06' E 039°04'0 0.0
2017-Sep-16 14:30N 44°06' E 039°04'0 0.0
2017-Sep-16 14:00N 44°06' E 039°04'0 0.0
2017-Sep-16 13:30N 44°06' E 039°04'0 0.0
2017-Sep-16 13:00N 44°06' E 039°04'0 0.0
2017-Sep-16 12:30N 44°06' E 039°04'0 0.0
2017-Sep-16 12:00N 44°06' E 039°04'0 0.0
2017-Sep-16 11:30N 44°06' E 039°04'0 0.0
2017-Sep-16 11:00N 44°06' E 039°04'0 0.0
2017-Sep-16 10:30N 44°06' E 039°04'0 0.0
2017-Sep-16 10:00N 44°06' E 039°04'0 0.0
2017-Sep-16 09:30N 44°06' E 039°04'0 0.0
2017-Sep-16 08:59N 44°06' E 039°04'0 0.0
2017-Sep-16 08:29N 44°06' E 039°04'0 0.0
2017-Sep-16 07:59N 44°06' E 039°04'0 0.0
2017-Sep-16 07:29N 44°06' E 039°04'0 0.0
2017-Sep-16 06:59N 44°06' E 039°04'0 0.0
2017-Sep-16 06:29N 44°06' E 039°04'0 0.0
2017-Sep-16 05:59N 44°06' E 039°04'0 0.0
2017-Sep-16 05:29N 44°06' E 039°04'0 0.0
2017-Sep-16 04:59N 44°06' E 039°04'0 0.0
2017-Sep-16 04:26N 44°06' E 039°04'0 0.0
2017-Sep-16 03:53N 44°06' E 039°04'0 0.0
2017-Sep-16 03:29N 44°06' E 039°04'0 0.0
2017-Sep-16 02:59N 44°06' E 039°04'0 0.0
2017-Sep-16 02:29N 44°06' E 039°04'0 0.0
2017-Sep-16 01:59N 44°06' E 039°04'0 0.0
2017-Sep-16 01:29N 44°06' E 039°04'0 0.0
2017-Sep-16 00:59N 44°06' E 039°04'0 0.0
2017-Sep-16 00:29N 44°06' E 039°04'0 0.0
2017-Sep-15 23:59N 44°06' E 039°04'0 0.0
2017-Sep-15 23:29N 44°06' E 039°04'0 0.0
2017-Sep-15 22:59N 44°06' E 039°04'0 0.0
2017-Sep-15 22:26N 44°06' E 039°04'0 0.0
2017-Sep-15 21:59N 44°06' E 039°04'0 0.0
2017-Sep-15 21:29N 44°06' E 039°04'0 0.3
2017-Sep-15 21:00N 44°05' E 039°04'2 4.5
2017-Sep-15 20:31N 44°03' E 039°04'4 8.2
2017-Sep-15 20:00N 44°01' E 038°59'612.0
2017-Sep-15 19:30N 43°58' E 038°51'612.2
2017-Sep-15 19:00N 43°56' E 038°44'612.3
2017-Sep-15 18:30N 43°54' E 038°36'612.2
2017-Sep-15 18:00N 43°52' E 038°28'612.1
2017-Sep-15 17:30N 43°50' E 038°20'612.1
2017-Sep-15 17:00N 43°48' E 038°12'612.1
2017-Sep-15 16:30N 43°46' E 038°04'611.9
2017-Sep-15 16:00N 43°44' E 037°56'611.8
2017-Sep-15 15:30N 43°42' E 037°49'612.0
2017-Sep-15 15:00N 43°39' E 037°41'611.9
2017-Sep-15 14:30N 43°37' E 037°33'612.0
2017-Sep-15 14:00N 43°35' E 037°25'612.1
2017-Sep-15 13:30N 43°33' E 037°18'612.2
2017-Sep-15 13:00N 43°31' E 037°10'1812.3
2017-Sep-15 11:32N 43°25' E 036°46'112.4
2017-Sep-15 11:26N 43°24' E 036°45'512.5
2017-Sep-15 11:00N 43°22' E 036°38'612.5
2017-Sep-15 10:30N 43°20' E 036°30'612.5
2017-Sep-15 10:00N 43°18' E 036°22'712.6
2017-Sep-15 09:26N 43°16' E 036°12'4512.7
2017-Sep-15 05:52N 42°60' E 035°14'6611.7
2017-Sep-15 00:13N 42°37' E 033°50'211.4
2017-Sep-15 00:00N 42°36' E 033°47'611.6
2017-Sep-14 23:30N 42°34' E 033°39'611.7
2017-Sep-14 23:00N 42°32' E 033°32'4612.1
2017-Sep-14 19:12N 42°15' E 032°33'312.5
2017-Sep-14 18:59N 42°14' E 032°30'612.4
2017-Sep-14 18:30N 42°12' E 032°22'1612.0
2017-Sep-14 17:10N 42°05' E 032°03'211.9
2017-Sep-14 16:58N 42°04' E 032°00'811.9
2017-Sep-14 16:15N 42°00' E 031°50'1111.8
2017-Sep-14 15:20N 41°58' E 031°35'412.1
2017-Sep-14 15:00N 41°58' E 031°30'612.0
2017-Sep-14 14:30N 41°56' E 031°23'612.0
2017-Sep-14 14:00N 41°54' E 031°15'612.0
2017-Sep-14 13:31N 41°52' E 031°08'612.1
2017-Sep-14 13:00N 41°50' E 030°60'612.0
2017-Sep-14 12:31N 41°48' E 030°52'612.2
2017-Sep-14 12:00N 41°45' E 030°45'612.3
2017-Sep-14 11:30N 41°43' E 030°37'612.5
2017-Sep-14 10:59N 41°41' E 030°29'612.6
2017-Sep-14 10:30N 41°39' E 030°21'612.5
2017-Sep-14 10:00N 41°37' E 030°14'612.4
2017-Sep-14 09:31N 41°35' E 030°06'612.4
2017-Sep-14 09:00N 41°32' E 029°58'68 2.1
2017-Sep-13 00:23N 40°47' E 028°52'0 0.7
2017-Sep-12 23:59N 40°47' E 028°52'1 0.5
2017-Sep-12 22:35N 40°46' E 028°52'0 0.5
2017-Sep-12 22:23N 40°46' E 028°52'1 1.2
2017-Sep-12 21:20N 40°45' E 028°54'2 6.0
2017-Sep-12 20:57N 40°45' E 028°56'3 6.1
2017-Sep-12 20:28N 40°45' E 029°00'3 6.7
2017-Sep-12 20:00N 40°45' E 029°04'4 6.6
2017-Sep-12 19:28N 40°47' E 029°08'3 6.7
2017-Sep-12 19:00N 40°50' E 029°11'3 6.9
2017-Sep-12 18:30N 40°51' E 029°15'2 2.7
2017-Sep-12 17:56N 40°51' E 029°17'0 0.0
2017-Sep-12 17:14N 40°51' E 029°17'0 0.0
2017-Sep-12 16:56N 40°51' E 029°17'0 0.0
2017-Sep-12 16:26N 40°51' E 029°17'0 0.0
2017-Sep-12 15:58N 40°51' E 029°17'0 0.0
2017-Sep-12 15:16N 40°51' E 029°17'0 0.0
2017-Sep-12 14:58N 40°51' E 029°17'0 0.0
2017-Sep-12 14:28N 40°51' E 029°17'0 0.0
2017-Sep-12 12:52N 40°51' E 029°17'0 0.0
2017-Sep-12 12:28N 40°51' E 029°17'0 0.0
2017-Sep-12 11:34N 40°51' E 029°17'0 0.0
2017-Sep-12 11:28N 40°51' E 029°17'0 0.0
2017-Sep-12 10:52N 40°51' E 029°17'0 0.0
2017-Sep-12 10:22N 40°51' E 029°17'0 0.0
2017-Sep-12 09:58N 40°51' E 029°17'0 0.0
2017-Sep-12 09:22N 40°51' E 029°17'0 0.0
2017-Sep-12 08:58N 40°51' E 029°17'0 0.0
2017-Sep-12 08:30N 40°51' E 029°17'0 0.0
2017-Sep-12 08:00N 40°51' E 029°17'0 0.0
2017-Sep-12 07:30N 40°51' E 029°17'0 0.0
2017-Sep-12 07:00N 40°51' E 029°17'0 0.0
2017-Sep-12 06:30N 40°51' E 029°17'0 0.0
2017-Sep-12 06:00N 40°51' E 029°17'0 0.0
2017-Sep-12 05:24N 40°51' E 029°17'0 0.0
2017-Sep-12 04:42N 40°51' E 029°17'0 0.0
2017-Sep-12 04:30N 40°51' E 029°17'0 0.0
2017-Sep-12 04:00N 40°51' E 029°17'0 0.0
2017-Sep-12 03:30N 40°51' E 029°17'0 0.0
2017-Sep-12 03:00N 40°51' E 029°17'0 0.0
2017-Sep-12 02:30N 40°51' E 029°17'0 0.0
2017-Sep-12 01:54N 40°51' E 029°17'0 0.0
2017-Sep-12 01:30N 40°51' E 029°17'0 0.0
2017-Sep-12 01:00N 40°51' E 029°17'0 0.0
2017-Sep-12 00:30N 40°51' E 029°17'0 0.0
2017-Sep-11 23:54N 40°51' E 029°17'0 0.0
2017-Sep-11 23:30N 40°51' E 029°17'  

Dump ship's entire track history